»·PEaware :: N1765R 1L1-2O7

N1765R :: 1L1-2O7

FLIGHT INFORMATION

Flight Status: Arrived
Operator: Privately registered:
United States
More flights under this callsign
Pilot: Eric S. (19226)
Aircraft: SOCATA TBM-900
(TBM9)
More flights by this aircraft type
Origin: 1L1 Lincoln Co
United States
Destination: 2O7 Independence
United States
More flights between these airports :: More routes between these airports
Route: SUVIE V394 LAS V105 LIDAT
File this flight plan on PilotEdge
Remarks:
Altitude:
(Current/Filed)
12,500ft
Speed:
(Current/Filed)
270kts
Departed: 30-May-20 04:16 PM
Arrived: 30-May-20 05:36 PM
Distance/Time
Traveled:
190nm/1:20
Distance/Time
To Go:
Arrived

Flight Plot

Page will automatically refresh every two minutes.

Flight plan parsing failed; only flown route is shown


Map Options




Map Legend


Flown Route
Filed Route
Departure Airport
Arrival Airport
Navaid (VOR, NDB)
Fix

Horizontal Profiles

Position Reports

Time Latitude Longitude Heading Altitude Ground
Speed
30-May-20 16:06 37.793813 -114.420941 95 4838ft 0kts
30-May-20 16:07 37.793813 -114.420941 95 4838ft 0kts
30-May-20 16:08 37.793813 -114.420941 95 4838ft 0kts
30-May-20 16:09 37.793813 -114.420941 95 4838ft 0kts
30-May-20 16:10 37.793813 -114.420941 95 4838ft 0kts
30-May-20 16:11 37.793813 -114.420941 95 4838ft 0kts
30-May-20 16:12 37.793813 -114.420941 95 4838ft 0kts
30-May-20 16:13 37.793813 -114.420941 95 4838ft 0kts
30-May-20 16:14 37.793812 -114.420935 95 4838ft 0kts
30-May-20 16:15 37.779843 -114.420077 182 5159ft 104kts
30-May-20 16:16 37.745825 -114.430589 198 6540ft 148kts
30-May-20 16:17 37.704721 -114.442618 195 8534ft 146kts
30-May-20 16:18 37.664080 -114.453730 195 10138ft 148kts
30-May-20 16:19 37.623146 -114.464967 193 11738ft 149kts
30-May-20 16:20 37.578751 -114.477076 192 12529ft 183kts
30-May-20 16:21 37.525049 -114.491723 192 12512ft 203kts
30-May-20 16:22 37.468647 -114.507101 192 12489ft 209kts
30-May-20 16:23 37.411702 -114.522596 192 12484ft 210kts
30-May-20 16:24 37.354396 -114.538167 192 12481ft 210kts
30-May-20 16:25 37.298130 -114.553432 192 12478ft 210kts
30-May-20 16:26 37.242053 -114.568626 192 12476ft 210kts
30-May-20 16:27 37.187001 -114.583518 192 12474ft 210kts
30-May-20 16:28 37.130616 -114.598746 192 12471ft 210kts
30-May-20 16:29 37.073766 -114.614092 192 12466ft 211kts
30-May-20 16:30 37.015470 -114.629789 192 12461ft 213kts
30-May-20 16:31 36.955909 -114.645802 191 12457ft 215kts
30-May-20 16:32 36.896283 -114.661792 191 12461ft 217kts
30-May-20 16:33 36.837077 -114.677659 191 12467ft 219kts
30-May-20 16:34 36.778438 -114.693350 191 12467ft 219kts
30-May-20 16:35 36.720748 -114.708760 191 12466ft 219kts
30-May-20 16:36 36.661320 -114.724612 191 12465ft 219kts
30-May-20 16:37 36.600368 -114.740844 191 12464ft 219kts
30-May-20 16:38 36.541075 -114.756605 191 12464ft 219kts
30-May-20 16:39 36.482326 -114.772204 191 12463ft 219kts
30-May-20 16:41 36.426490 -114.787005 191 12463ft 219kts
30-May-20 16:42 36.365689 -114.803134 192 12461ft 218kts
30-May-20 16:43 36.320885 -114.853934 220 12462ft 225kts
30-May-20 16:44 36.277873 -114.908671 220 12463ft 225kts
30-May-20 16:45 36.235232 -114.962871 220 12461ft 225kts
30-May-20 16:46 36.191528 -115.018300 220 12465ft 226kts
30-May-20 16:47 36.147281 -115.074348 221 12474ft 228kts
30-May-20 16:48 36.103965 -115.129128 222 12492ft 230kts
30-May-20 16:49 36.077340 -115.199985 260 12515ft 245kts
30-May-20 16:50 36.072643 -115.283006 260 12505ft 241kts
30-May-20 16:51 36.067907 -115.364469 260 12499ft 240kts
30-May-20 16:52 36.063133 -115.445587 260 12493ft 239kts
30-May-20 16:53 36.058203 -115.528388 260 12497ft 239kts
30-May-20 16:54 36.053217 -115.611140 260 12501ft 239kts
30-May-20 16:55 36.048211 -115.693267 260 12506ft 239kts
30-May-20 16:56 36.043295 -115.773049 260 12511ft 239kts
30-May-20 16:57 36.038370 -115.852139 260 12517ft 239kts
30-May-20 16:57 36.034072 -115.920472 260 12523ft 239kts
30-May-20 16:59 36.035091 -116.015836 303 12502ft 257kts
30-May-20 17:00 36.092835 -116.071070 318 12525ft 262kts
30-May-20 17:00 36.141779 -116.117290 318 12525ft 262kts
30-May-20 17:01 36.200157 -116.172585 318 12525ft 262kts
30-May-20 17:03 36.268361 -116.237329 318 12516ft 263kts
30-May-20 17:03 36.314236 -116.280957 318 12509ft 263kts
30-May-20 17:04 36.373690 -116.337599 318 12507ft 263kts
30-May-20 17:05 36.433152 -116.394360 318 12508ft 263kts
30-May-20 17:06 36.492580 -116.451201 318 12508ft 263kts
30-May-20 17:07 36.552818 -116.508935 318 12508ft 263kts
30-May-20 17:08 36.612887 -116.566622 318 12509ft 263kts
30-May-20 17:09 36.672773 -116.624250 318 12509ft 263kts
30-May-20 17:10 36.732089 -116.681441 317 12511ft 263kts
30-May-20 17:11 36.790938 -116.738526 313 12508ft 262kts
30-May-20 17:12 36.801728 -116.821660 265 12512ft 242kts
30-May-20 17:13 36.803179 -116.907402 265 12515ft 242kts
30-May-20 17:14 36.804446 -116.991135 266 12524ft 237kts
30-May-20 17:15 36.805646 -117.074189 267 12533ft 232kts
30-May-20 17:16 36.806799 -117.156174 268 12534ft 229kts
30-May-20 17:17 36.807881 -117.237402 268 12521ft 228kts
30-May-20 17:18 36.808893 -117.318330 268 12508ft 228kts
30-May-20 17:19 36.809846 -117.399074 268 12499ft 227kts
30-May-20 17:20 36.810745 -117.479841 268 12498ft 227kts
30-May-20 17:21 36.811587 -117.560255 268 12498ft 227kts
30-May-20 17:22 36.812370 -117.640274 268 12498ft 227kts
30-May-20 17:23 36.813102 -117.720395 267 12502ft 227kts
30-May-20 17:24 36.813777 -117.800411 267 12502ft 227kts
30-May-20 17:25 36.814402 -117.880751 267 12501ft 227kts
30-May-20 17:26 36.814978 -117.961267 267 12498ft 222kts
30-May-20 17:27 36.815457 -118.036391 267 12151ft 204kts
30-May-20 17:28 36.816122 -118.108947 267 10636ft 208kts
30-May-20 17:29 36.817925 -118.179387 267 9086ft 185kts
30-May-20 17:30 36.791926 -118.203508 151 7498ft 159kts
30-May-20 17:31 36.813625 -118.169963 337 6186ft 191kts
30-May-20 17:32 36.856799 -118.190316 321 5669ft 175kts
30-May-20 17:33 36.845063 -118.215423 187 4878ft 106kts
30-May-20 17:34 36.821989 -118.207864 160 3957ft 83kts
30-May-20 17:35 36.810417 -118.202086 211 3901ft 17kts
30-May-20 17:36 36.809741 -118.203269 58 3904ft 0kts
30-May-20 17:37 36.809741 -118.203269 58 3904ft 0kts
30-May-20 17:38 36.809741 -118.203269 58 3904ft 0kts
30-May-20 17:39 36.809741 -118.203269 58 3904ft 0kts
30-May-20 17:40 36.809741 -118.203269 58 3904ft 0kts
30-May-20 17:41 36.809741 -118.203269 58 3904ft 0kts
30-May-20 17:42 36.809741 -118.203269 58 3904ft 0kts
30-May-20 17:43 36.809741 -118.203269 58 3904ft 0kts
30-May-20 17:44 36.809741 -118.203269 58 3904ft 0kts
30-May-20 17:45 36.809741 -118.203269 58 3904ft 0kts
30-May-20 17:46 36.809741 -118.203269 58 3904ft 0kts
30-May-20 17:47 36.809741 -118.203269 58 3904ft 0kts
30-May-20 17:48 36.809741 -118.203269 58 3904ft 0kts
30-May-20 17:49 36.809741 -118.203269 58 3904ft 0kts

Navigation Log

Ident Type
Flight plan parsing failed, navigation log unavailable